Terminal Aerodrome Forecast
Issued by NWS

Home | Current Version | Previous Version | Text Only | Print | Product List | Glossary On
Versions: 1 2 3 4 5 6 7 8 9 10 11 12 13
000
FTUS43 KMQT 182327
TAFSAW
TAF
KSAW 182327Z 1900/1924 18015G23KT P6SM OVC020
     FM190400 19013G21KT P6SM VCSH OVC045
     FM190700 20009KT P6SM VCSH OVC020
     FM191100 31007KT 6SM -SHSN OVC015
     FM191500 36011KT 4SM -SHSN OVC015
     FM191800 36012G21KT 3SM -SN BKN015
     FM191900 01012G22KT 2SM -SN BKN015=

USA.gov is the U.S. government's official web portal to all federal, state and local government web resources and services.